• Join FlightAware (Why Join?)
  • Login
  • US Flag 
05:48AM EST


 

Airport Tracker/Info


-or-


 

Live Flight TrackerFlight Track Log ✈ CNK432 ✈ 24-Apr-2013 ✈ CYMM - CYEG

Flight Track Log - Related Links

Times and Time Zones

All times are in EDT time to prevent confusion due to time zone crossing. See the CNK432 flight status page for this flight to view local times or setup timezone preferences in your user account.

Time Position Orientation Groundspeed Altitude Reporting Facility
EDT Latitude Longitude Course Direction KTS MPH feet Rate Location/Type
03:45PM 56.6333 -111.3167 201° Southwest 140 161 3,200  Level Edmonton Center
03:46PM 56.5833 -111.3500 200° South 150 173 5,200 1,980 Climbing Edmonton Center
03:47PM 56.5500 -111.3667 195° South 150 173 7,200 1,800 Climbing Edmonton Center
03:48PM 56.5167 -111.4000 209° Southwest 160 184 8,900 1,800 Climbing Edmonton Center
03:49PM 56.4667 -111.4500 209° Southwest 170 196 10,800 1,800 Climbing Edmonton Center
03:50PM 56.2079 -111.5646 201° Southwest  Level FlightAware Approximate
03:50PM 56.4333 -111.4667 195° South 170 196 12,500  Level Edmonton Center
03:51PM 56.3667 -111.5167 203° Southwest 180 207 14,300 1,620 Climbing Edmonton Center
03:52PM 56.3167 -111.5500 200° South 190 219 15,800 1,500 Climbing Edmonton Center
03:53PM 56.2667 -111.6000 209° Southwest 200 230 17,300 1,500 Climbing Edmonton Center
03:54PM 56.2167 -111.6167 191° South 210 242 18,800 1,380 Climbing Edmonton Center
03:55PM 56.1667 -111.6667 209° Southwest 210 242 20,100 1,140 Climbing Edmonton Center
03:56PM 56.1000 -111.7167 203° Southwest 220 253 21,100 960 Climbing Edmonton Center
03:57PM 56.0333 -111.7667 203° Southwest 220 253 22,100 900 Climbing Edmonton Center
03:58PM 55.9833 -111.7833 191° South 230 265 22,900 840 Climbing Edmonton Center
03:59PM 55.9333 -111.8333 209° Southwest 230 265 23,800 600 Climbing Edmonton Center
04:00PM 55.8667 -111.8833 203° Southwest 250 288 24,100 120 Climbing Edmonton Center
04:01PM 55.7833 -111.9667 209° Southwest 260 299 24,100  Level Edmonton Center
04:02PM 55.7167 -112.0167 203° Southwest 290 334 24,100  Level Edmonton Center
04:03PM 55.6500 -112.0667 203° Southwest 300 345 24,100 -60 Level Edmonton Center
04:04PM 55.5500 -112.1333 201° Southwest 300 345 24,000  Descending Edmonton Center
04:05PM 55.4833 -112.1833 203° Southwest 300 345 24,100  Climbing Edmonton Center
04:06PM 55.4000 -112.2167 193° South 300 345 24,000 -60 Descending Edmonton Center
04:07PM 55.3167 -112.3000 210° Southwest 300 345 24,000  Level Edmonton Center
04:08PM 55.2333 -112.3500 199° South 300 345 24,100  Climbing Edmonton Center
04:09PM 55.1667 -112.3833 196° South 300 345 24,100  Level Edmonton Center
04:10PM 55.1000 -112.4667 216° Southwest 300 345 24,100 -60 Level Edmonton Center
04:11PM 55.0000 -112.5000 191° South 300 345 24,000  Descending Edmonton Center
04:12PM 54.9333 -112.5500 203° Southwest 300 345 24,100  Climbing Edmonton Center
04:13PM 54.8667 -112.6333 216° Southwest 300 345 24,000  Descending Edmonton Center
04:14PM 54.7667 -112.6667 191° South 290 334 24,100  Climbing Edmonton Center
04:15PM 54.7000 -112.7500 216° Southwest 290 334 24,100 -60 Level Edmonton Center
04:16PM 54.6333 -112.7833 196° South 300 345 24,000 -60 Descending Edmonton Center
04:17PM 54.5500 -112.8667 210° Southwest 300 345 24,000  Level Edmonton Center
04:18PM 54.4833 -112.9000 196° South 300 345 24,000 -660 Level Edmonton Center
04:19PM 54.4000 -112.9667 205° Southwest 300 345 22,700 -1,320 Descending Edmonton Center
04:20PM 54.3167 -113.0167 199° South 300 345 21,400 -1,440 Descending Edmonton Center
04:21PM 54.2500 -113.0833 210° Southwest 300 345 19,900 -1,620 Descending Edmonton Center
04:22PM 54.1667 -113.1333 199° South 300 345 18,200 -1,620 Descending Edmonton Center
04:23PM 54.0833 -113.2000 205° Southwest 300 345 16,700 -1,500 Descending Edmonton Center
04:24PM 54.0167 -113.2667 210° Southwest 300 345 15,200 -1,620 Descending Edmonton Center
04:25PM 53.9500 -113.3167 204° Southwest 300 345 13,500 -1,620 Descending Edmonton Center
04:26PM 53.8500 -113.3833 201° Southwest 290 334 12,000 -1,380 Descending Edmonton Center
04:27PM 53.7833 -113.4333 204° Southwest 290 334 10,800 -1,260 Descending Edmonton Center
04:28PM 53.7167 -113.4667 196° South 280 322 9,500 -1,200 Descending Edmonton Center
04:29PM 53.6500 -113.5500 217° Southwest 260 299 8,400 -720 Descending Edmonton Center
04:30PM 53.5833 -113.5833 197° South 250 288 8,100 -240 Descending Edmonton Center
04:31PM 53.5167 -113.6333 204° Southwest 250 288 8,000 -60 Descending Edmonton Center
04:32PM 53.4667 -113.6833 211° Southwest 250 288 8,000  Level Edmonton Center
04:33PM 53.3833 -113.7167 193° South 250 288 8,000  Level Edmonton Center
04:34PM 53.3333 -113.7667 211° Southwest 250 288 8,000 -600 Level Edmonton Center
04:35PM 53.2667 -113.8000 197° South 240 276 6,800 -1,200 Descending Edmonton Center
04:36PM 53.2167 -113.8167 191° South 220 253 5,600 -900 Descending Edmonton Center
04:37PM 53.1833 -113.7500 130° Southeast 210 242 5,000 -600 Descending Edmonton Center
04:38PM 53.2167 -113.7167 31° Northeast 180 207 4,500 -780 Descending Edmonton Center
04:39PM 53.2500 -113.6667 42° Northeast 170 196 3,500 -1,140 Descending Edmonton Center
04:40PM 53.2833 -113.6000 50° Northeast 130 150 2,300 -1,200 Descending Edmonton Center